createdAt,value
2024-05-09T00:00:57.254Z,51.81
2024-05-09T00:02:59.983Z,51.82
2024-05-09T00:05:01.720Z,51.54
2024-05-09T00:07:03.524Z,51.32
2024-05-09T00:09:05.084Z,51.57
2024-05-09T00:11:06.871Z,51.84
2024-05-09T00:13:10.199Z,51.47
2024-05-09T00:15:12.396Z,51.28
2024-05-09T00:17:14.205Z,51.24
2024-05-09T00:19:15.940Z,51.26
2024-05-09T00:21:17.734Z,51.35
2024-05-09T00:23:19.395Z,51.48
2024-05-09T00:25:21.030Z,51.54
2024-05-09T00:27:22.759Z,51.86
2024-05-09T00:29:24.498Z,51.99
2024-05-09T00:31:26.725Z,51.74
2024-05-09T00:33:28.722Z,51.62
2024-05-09T00:35:30.699Z,51.76
2024-05-09T00:37:32.475Z,52.06
2024-05-09T00:39:34.106Z,51.86
2024-05-09T00:41:35.798Z,51.87
2024-05-09T00:43:37.430Z,51.87
2024-05-09T00:45:39.060Z,51.97
2024-05-09T00:47:42.945Z,51.61
2024-05-09T00:49:44.819Z,51.80
2024-05-09T00:51:46.677Z,52.16
2024-05-09T00:53:49.177Z,52.03
2024-05-09T00:55:52.676Z,51.96
2024-05-09T00:57:54.726Z,52.31
2024-05-09T00:59:56.778Z,52.20
2024-05-09T01:01:59.644Z,52.09
2024-05-09T01:04:01.748Z,51.96
2024-05-09T01:06:03.517Z,52.21
2024-05-09T01:08:05.947Z,52.39
2024-05-09T01:10:13.959Z,52.15
2024-05-09T01:12:19.206Z,52.13
2024-05-09T01:14:25.368Z,52.20
2024-05-09T01:16:27.076Z,52.22
2024-05-09T01:18:28.875Z,52.44
2024-05-09T01:20:39.801Z,52.16
2024-05-09T01:22:44.734Z,52.12
2024-05-09T01:24:46.357Z,52.48
2024-05-09T01:26:48.307Z,52.73
2024-05-09T01:28:49.899Z,52.86
2024-05-09T01:30:51.499Z,52.73
2024-05-09T01:32:53.414Z,52.47
2024-05-09T01:34:59.663Z,52.32
2024-05-09T01:37:01.347Z,52.33
2024-05-09T01:39:02.931Z,52.57
2024-05-09T01:41:04.807Z,52.30
2024-05-09T01:43:07.630Z,52.58
2024-05-09T01:45:09.805Z,52.23
2024-05-09T01:47:11.507Z,52.32
2024-05-09T01:49:13.310Z,52.35
2024-05-09T01:51:15.021Z,52.58
2024-05-09T01:53:16.712Z,52.28
2024-05-09T01:55:18.317Z,52.52
2024-05-09T01:57:19.994Z,52.35
2024-05-09T01:59:21.713Z,52.54
2024-05-09T02:01:24.021Z,52.58
2024-05-09T02:03:27.948Z,52.48
2024-05-09T02:05:30.094Z,52.25
2024-05-09T02:07:31.711Z,52.64
2024-05-09T02:09:37.680Z,52.57
2024-05-09T02:11:47.727Z,52.92
2024-05-09T02:13:49.415Z,52.69
2024-05-09T02:15:52.563Z,52.72
2024-05-09T02:17:54.504Z,52.56
2024-05-09T02:19:56.255Z,52.49
2024-05-09T02:21:57.823Z,52.54
2024-05-09T02:24:00.113Z,52.24
2024-05-09T02:26:01.737Z,52.82
2024-05-09T02:28:03.413Z,52.87
2024-05-09T02:30:12.227Z,52.58
2024-05-09T02:32:20.160Z,52.73
2024-05-09T02:34:21.938Z,52.52
2024-05-09T02:36:23.568Z,52.84
2024-05-09T02:38:25.193Z,52.73
2024-05-09T02:40:35.563Z,52.84
2024-05-09T02:42:39.703Z,52.83
2024-05-09T02:44:41.265Z,52.62
2024-05-09T02:46:42.827Z,52.57
2024-05-09T02:48:44.459Z,52.94
2024-05-09T02:50:46.203Z,52.67
2024-05-09T02:52:47.896Z,52.60
2024-05-09T02:54:49.500Z,52.62
2024-05-09T02:56:51.246Z,52.63
2024-05-09T02:58:52.964Z,53.27
2024-05-09T03:00:54.726Z,52.89
2024-05-09T03:02:56.538Z,52.91
2024-05-09T03:04:58.915Z,52.78
2024-05-09T03:07:00.539Z,53.08
2024-05-09T03:09:04.796Z,53.07
2024-05-09T03:11:06.639Z,52.82
2024-05-09T03:13:14.119Z,53.10
2024-05-09T03:15:18.375Z,53.01
2024-05-09T03:17:20.143Z,53.30
2024-05-09T03:19:22.078Z,52.92
2024-05-09T03:21:23.733Z,52.93
2024-05-09T03:23:25.361Z,52.82
2024-05-09T03:25:26.988Z,52.81
2024-05-09T03:27:28.641Z,53.03
2024-05-09T03:29:30.484Z,53.35
2024-05-09T03:31:32.173Z,53.07
2024-05-09T03:33:34.088Z,53.24
2024-05-09T03:35:35.875Z,53.33
2024-05-09T03:37:37.491Z,53.46
2024-05-09T03:39:39.193Z,53.13
2024-05-09T03:41:40.850Z,53.31
2024-05-09T03:43:43.926Z,53.19
2024-05-09T03:45:48.106Z,53.54
2024-05-09T03:47:49.859Z,53.40
2024-05-09T03:49:51.556Z,52.98
2024-05-09T03:51:53.138Z,53.32
2024-05-09T03:53:55.108Z,53.34
2024-05-09T03:55:57.315Z,53.23
2024-05-09T03:57:59.265Z,53.52
2024-05-09T04:00:00.930Z,53.45
2024-05-09T04:02:06.522Z,53.52
2024-05-09T04:04:09.160Z,53.42
2024-05-09T04:06:12.045Z,53.99
2024-05-09T04:08:15.369Z,53.88
2024-05-09T04:10:24.242Z,53.72
2024-05-09T04:12:32.650Z,53.45
2024-05-09T04:14:34.388Z,53.45
2024-05-09T04:16:36.058Z,53.43
2024-05-09T04:18:38.088Z,53.40
2024-05-09T04:20:41.142Z,53.42
2024-05-09T04:22:43.218Z,53.52
2024-05-09T04:24:45.272Z,53.34
2024-05-09T04:26:46.853Z,53.35
2024-05-09T04:28:48.483Z,53.30
2024-05-09T04:30:50.641Z,53.50
2024-05-09T04:32:52.440Z,53.20
2024-05-09T04:34:54.065Z,53.46
2024-05-09T04:36:55.658Z,53.25
2024-05-09T04:38:57.241Z,53.41
2024-05-09T04:40:59.845Z,53.71
2024-05-09T04:43:01.595Z,53.32
2024-05-09T04:45:03.359Z,53.22
2024-05-09T04:47:05.081Z,53.32
2024-05-09T04:49:06.791Z,53.54
2024-05-09T04:51:08.500Z,53.37
2024-05-09T04:53:14.855Z,53.34
2024-05-09T04:55:16.885Z,53.38
2024-05-09T04:57:18.437Z,53.58
2024-05-09T04:59:20.104Z,53.34
2024-05-09T05:01:21.798Z,53.49
2024-05-09T05:03:23.543Z,53.80
2024-05-09T05:05:25.234Z,53.57
2024-05-09T05:07:26.820Z,53.37
2024-05-09T05:09:28.501Z,53.08
2024-05-09T05:11:30.172Z,53.55
2024-05-09T05:13:32.526Z,53.50
2024-05-09T05:15:34.107Z,53.58
2024-05-09T05:17:36.438Z,53.83
2024-05-09T05:19:38.470Z,54.10
2024-05-09T05:21:40.164Z,53.90
2024-05-09T05:23:41.910Z,54.29
2024-05-09T05:25:44.082Z,54.57
2024-05-09T05:27:45.714Z,54.58
2024-05-09T05:29:50.128Z,54.82
2024-05-09T05:31:51.791Z,54.77
2024-05-09T05:33:53.599Z,54.77
2024-05-09T05:35:55.954Z,54.73
2024-05-09T05:37:57.571Z,54.64
2024-05-09T05:39:59.290Z,54.33
2024-05-09T05:42:02.426Z,54.22
2024-05-09T05:44:04.117Z,54.31
2024-05-09T05:46:05.735Z,54.26
2024-05-09T05:48:08.051Z,54.43
2024-05-09T05:50:20.409Z,54.49
2024-05-09T05:52:28.470Z,54.56
2024-05-09T05:54:30.039Z,54.63
2024-05-09T05:56:31.705Z,54.56
2024-05-09T05:58:33.343Z,54.67
2024-05-09T06:00:38.551Z,54.60
2024-05-09T06:02:42.028Z,54.29
2024-05-09T06:04:43.815Z,54.39
2024-05-09T06:06:45.500Z,54.55
2024-05-09T06:08:47.143Z,54.46
2024-05-09T06:10:48.889Z,54.33
2024-05-09T06:12:50.535Z,54.34
2024-05-09T06:14:52.210Z,54.48
2024-05-09T06:16:57.703Z,54.00
2024-05-09T06:18:59.905Z,54.11
2024-05-09T06:21:01.676Z,54.28
2024-05-09T06:23:03.594Z,54.50
2024-05-09T06:25:05.633Z,54.57
2024-05-09T06:27:07.334Z,54.78
2024-05-09T06:29:12.439Z,54.68
2024-05-09T06:31:14.076Z,54.79
2024-05-09T06:33:16.726Z,54.85
2024-05-09T06:35:20.422Z,54.84
2024-05-09T06:37:22.026Z,55.15
2024-05-09T06:39:24.146Z,55.29
2024-05-09T06:41:25.768Z,55.00
2024-05-09T06:43:27.429Z,55.36
2024-05-09T06:45:28.998Z,55.08
2024-05-09T06:47:30.837Z,55.29
2024-05-09T06:49:32.916Z,55.58
2024-05-09T06:51:38.394Z,55.35
2024-05-09T06:53:40.724Z,55.43
2024-05-09T06:55:43.105Z,55.56
2024-05-09T06:57:44.697Z,55.42
2024-05-09T06:59:46.300Z,55.64
2024-05-09T07:01:48.173Z,55.43
2024-05-09T07:03:50.163Z,54.66
2024-05-09T07:05:51.892Z,55.20
2024-05-09T07:07:53.600Z,54.70
2024-05-09T07:09:55.293Z,54.41
2024-05-09T07:11:57.046Z,54.02
2024-05-09T07:13:58.714Z,54.13
2024-05-09T07:16:00.373Z,54.07
2024-05-09T07:18:17.768Z,53.94
2024-05-09T07:20:31.632Z,54.12
2024-05-09T07:22:36.316Z,53.90
2024-05-09T07:24:44.890Z,53.68
2024-05-09T07:27:06.966Z,54.25
2024-05-09T07:29:28.984Z,53.74
2024-05-09T07:31:37.413Z,53.46
2024-05-09T07:33:39.294Z,53.11
2024-05-09T07:35:40.936Z,52.99
2024-05-09T07:37:42.546Z,52.93
2024-05-09T07:39:44.264Z,52.80
2024-05-09T07:41:46.038Z,53.02
2024-05-09T07:43:48.816Z,52.97
2024-05-09T07:45:54.102Z,52.95
2024-05-09T07:49:44.327Z,53.08
2024-05-09T07:53:30.555Z,52.09
2024-05-09T07:54:45.514Z,52.43
2024-05-09T07:56:47.314Z,52.50
2024-05-09T07:59:01.882Z,51.56
2024-05-09T08:01:23.951Z,51.78
2024-05-09T08:03:32.328Z,51.62
2024-05-09T08:05:38.956Z,51.62
2024-05-09T08:07:40.696Z,51.50
2024-05-09T08:09:42.304Z,51.47
2024-05-09T08:11:44.887Z,51.39
2024-05-09T08:13:46.782Z,51.59
2024-05-09T08:15:48.394Z,51.30
2024-05-09T08:17:50.173Z,51.32
2024-05-09T08:19:51.945Z,51.33
2024-05-09T08:21:53.651Z,50.72
2024-05-09T08:23:55.717Z,50.98
2024-05-09T08:26:00.806Z,51.02
2024-05-09T08:28:04.772Z,50.60
2024-05-09T08:30:10.184Z,50.68
2024-05-09T08:32:14.336Z,50.67
2024-05-09T08:34:18.527Z,50.41
2024-05-09T08:36:20.197Z,50.67
2024-05-09T08:38:21.845Z,50.50
2024-05-09T08:40:30.761Z,50.36
2024-05-09T08:42:38.212Z,49.45
2024-05-09T08:44:39.958Z,49.58
2024-05-09T08:46:42.375Z,49.81
2024-05-09T08:48:46.579Z,49.57
2024-05-09T08:50:52.077Z,49.14
2024-05-09T08:52:53.743Z,49.04
2024-05-09T08:54:55.377Z,49.64
2024-05-09T08:56:57.450Z,48.95
2024-05-09T08:59:01.695Z,48.86
2024-05-09T09:01:07.407Z,48.40
2024-05-09T09:03:11.390Z,48.57
2024-05-09T09:05:17.138Z,48.03
2024-05-09T09:07:22.407Z,47.50
2024-05-09T09:09:26.722Z,47.93
2024-05-09T09:11:28.467Z,47.91
2024-05-09T09:13:30.123Z,47.28
2024-05-09T09:15:31.864Z,47.11
2024-05-09T09:17:33.745Z,47.22
2024-05-09T09:19:40.232Z,46.86
2024-05-09T09:21:42.589Z,46.65
2024-05-09T09:23:44.250Z,45.95
2024-05-09T09:25:48.965Z,45.54
2024-05-09T09:27:50.865Z,44.45
2024-05-09T09:29:52.547Z,44.46
2024-05-09T09:32:08.562Z,42.73
2024-05-09T09:34:10.673Z,44.12
2024-05-09T09:36:14.351Z,43.83
2024-05-09T09:38:21.575Z,44.39
2024-05-09T09:40:32.094Z,44.23
2024-05-09T09:42:37.816Z,44.99
2024-05-09T09:44:42.212Z,44.96
2024-05-09T09:46:47.397Z,44.95
2024-05-09T09:48:49.289Z,44.61
2024-05-09T09:50:52.281Z,44.61
2024-05-09T09:52:55.057Z,44.63
2024-05-09T09:54:58.556Z,44.81
2024-05-09T09:57:01.020Z,45.09
2024-05-09T09:59:04.306Z,44.60
2024-05-09T10:01:05.961Z,45.10
2024-05-09T10:03:07.583Z,44.98
2024-05-09T10:05:09.935Z,44.87
2024-05-09T10:07:13.372Z,44.47
2024-05-09T10:09:16.530Z,43.85
2024-05-09T10:11:22.183Z,44.76
2024-05-09T10:13:33.030Z,44.27
2024-05-09T10:15:51.424Z,44.55
2024-05-09T10:17:53.357Z,44.39
2024-05-09T10:20:14.412Z,43.95
2024-05-09T10:22:28.852Z,43.50
2024-05-09T10:24:53.469Z,43.91
2024-05-09T10:26:56.011Z,43.54
2024-05-09T10:28:58.753Z,43.08
2024-05-09T10:31:03.051Z,43.46
2024-05-09T10:33:10.937Z,42.64
2024-05-09T10:35:15.082Z,43.43
2024-05-09T10:37:17.545Z,42.96
2024-05-09T10:39:25.739Z,43.12
2024-05-09T10:41:27.646Z,43.22
2024-05-09T10:43:31.281Z,43.05
2024-05-09T10:45:35.473Z,42.49
2024-05-09T10:47:37.445Z,42.72
2024-05-09T10:49:39.283Z,42.43
2024-05-09T10:51:44.496Z,42.60
2024-05-09T10:53:48.849Z,42.22
2024-05-09T10:55:57.499Z,41.35
2024-05-09T10:57:59.133Z,42.02
2024-05-09T11:00:00.756Z,41.53
2024-05-09T11:02:10.178Z,41.61
2024-05-09T11:04:12.235Z,40.77
2024-05-09T11:06:15.384Z,40.78
2024-05-09T11:08:17.656Z,39.90
2024-05-09T11:10:27.331Z,40.68
2024-05-09T11:12:33.505Z,40.40
2024-05-09T11:14:35.368Z,40.31
2024-05-09T11:16:36.954Z,40.84
2024-05-09T11:18:39.407Z,40.24
2024-05-09T11:20:41.419Z,40.03
2024-05-09T11:22:45.207Z,39.28
2024-05-09T11:24:47.028Z,40.10
2024-05-09T11:26:48.761Z,39.10
2024-05-09T11:28:51.803Z,39.13
2024-05-09T11:31:05.447Z,37.15
2024-05-09T11:33:11.232Z,38.12
2024-05-09T11:35:12.982Z,38.33
2024-05-09T11:37:14.763Z,38.20
2024-05-09T11:39:16.613Z,38.77
2024-05-09T11:41:18.723Z,38.04
2024-05-09T11:43:21.048Z,35.46
2024-05-09T11:45:22.940Z,36.27
2024-05-09T11:47:24.774Z,37.32
2024-05-09T11:49:27.083Z,38.22
2024-05-09T11:51:28.896Z,38.48
2024-05-09T11:53:30.521Z,37.63
2024-05-09T11:55:36.262Z,37.55
2024-05-09T11:57:38.973Z,37.58
2024-05-09T11:59:41.020Z,37.76
2024-05-09T12:01:42.776Z,38.12
2024-05-09T12:03:44.647Z,38.48
2024-05-09T12:05:46.522Z,37.56
2024-05-09T12:07:48.234Z,37.24
2024-05-09T12:09:50.051Z,37.24
2024-05-09T12:11:52.877Z,37.06
2024-05-09T12:13:54.555Z,36.72
2024-05-09T12:15:56.280Z,36.27
2024-05-09T12:18:00.059Z,36.12
2024-05-09T12:20:07.060Z,36.17
2024-05-09T12:22:10.796Z,36.12
2024-05-09T12:24:14.483Z,35.54
2024-05-09T12:26:17.714Z,34.13
2024-05-09T12:28:20.162Z,34.57
2024-05-09T12:30:32.553Z,35.40
2024-05-09T12:32:39.165Z,34.91
2024-05-09T12:34:40.859Z,34.53
2024-05-09T12:36:43.109Z,35.08
2024-05-09T12:38:45.907Z,34.40
2024-05-09T12:40:47.557Z,34.00
2024-05-09T12:42:49.905Z,34.38
2024-05-09T12:44:51.509Z,33.81
2024-05-09T12:46:53.083Z,33.50
2024-05-09T12:48:55.065Z,33.73
2024-05-09T12:50:57.646Z,33.79
2024-05-09T12:52:59.358Z,33.72
2024-05-09T12:55:01.038Z,33.86
2024-05-09T12:57:02.712Z,34.83
2024-05-09T12:59:04.378Z,34.53
2024-05-09T13:01:06.113Z,34.09
2024-05-09T13:03:07.886Z,33.63
2024-05-09T13:05:10.502Z,32.83
2024-05-09T13:07:12.230Z,32.99
2024-05-09T13:09:13.861Z,32.60
2024-05-09T13:11:15.486Z,32.13
2024-05-09T13:13:17.293Z,32.30
2024-05-09T13:15:19.040Z,31.64
2024-05-09T13:17:20.918Z,31.85
2024-05-09T13:19:22.737Z,32.53
2024-05-09T13:21:24.413Z,32.99
2024-05-09T13:23:26.415Z,32.85
2024-05-09T13:25:28.041Z,32.92
2024-05-09T13:27:29.702Z,32.31
2024-05-09T13:29:31.344Z,32.38
2024-05-09T13:31:32.976Z,32.32
2024-05-09T13:33:34.694Z,32.24
2024-05-09T13:35:36.506Z,32.20
2024-05-09T13:37:38.334Z,32.46
2024-05-09T13:39:40.003Z,32.61
2024-05-09T13:41:41.594Z,32.73
2024-05-09T13:43:43.181Z,33.00
2024-05-09T13:45:44.944Z,33.68
2024-05-09T13:47:46.738Z,33.01
2024-05-09T13:49:48.480Z,33.40
2024-05-09T13:51:50.140Z,32.79
2024-05-09T13:53:51.752Z,32.68
2024-05-09T13:55:53.426Z,31.90
2024-05-09T13:57:55.420Z,31.88
2024-05-09T13:59:57.380Z,32.26
2024-05-09T14:01:59.066Z,32.03
2024-05-09T14:04:00.893Z,32.51
2024-05-09T14:06:02.622Z,32.12
2024-05-09T14:08:04.608Z,32.30
2024-05-09T14:10:11.399Z,31.64
2024-05-09T14:12:15.324Z,31.80
2024-05-09T14:14:16.968Z,32.04
2024-05-09T14:16:18.805Z,31.42
2024-05-09T14:18:20.808Z,32.20
2024-05-09T14:20:30.712Z,32.42
2024-05-09T14:22:35.488Z,32.69
2024-05-09T14:24:37.128Z,32.65
2024-05-09T14:26:38.726Z,32.56
2024-05-09T14:28:40.336Z,32.62
2024-05-09T14:30:42.480Z,32.89
2024-05-09T14:32:44.622Z,32.45
2024-05-09T14:34:46.477Z,32.08
2024-05-09T14:36:48.296Z,31.81
2024-05-09T14:38:49.910Z,32.30
2024-05-09T14:40:51.635Z,32.47
2024-05-09T14:42:53.500Z,32.54
2024-05-09T14:44:55.098Z,32.86
2024-05-09T14:46:56.913Z,32.34
2024-05-09T14:49:00.104Z,32.51
2024-05-09T14:51:01.723Z,32.70
2024-05-09T14:53:03.489Z,32.58
2024-05-09T14:55:05.590Z,32.39
2024-05-09T14:57:07.325Z,31.97
2024-05-09T14:59:09.222Z,31.91
2024-05-09T15:01:10.894Z,32.17
2024-05-09T15:03:12.760Z,32.05
2024-05-09T15:05:14.519Z,31.77
2024-05-09T15:07:16.277Z,31.48
2024-05-09T15:09:17.958Z,32.42
2024-05-09T15:11:19.624Z,32.62
2024-05-09T15:13:21.699Z,32.85
2024-05-09T15:15:23.369Z,32.10
2024-05-09T15:17:25.038Z,32.58
2024-05-09T15:19:26.956Z,32.22
2024-05-09T15:21:28.725Z,32.47
2024-05-09T15:23:30.286Z,32.82
2024-05-09T15:25:33.632Z,32.38
2024-05-09T15:27:35.372Z,32.82
2024-05-09T15:29:37.035Z,32.40
2024-05-09T15:31:38.694Z,32.01
2024-05-09T15:33:41.747Z,32.19
2024-05-09T15:35:44.825Z,29.42
2024-05-09T15:37:48.183Z,30.48
2024-05-09T15:39:50.020Z,31.20
2024-05-09T15:41:56.490Z,31.63
2024-05-09T15:43:58.077Z,31.76
2024-05-09T15:45:59.851Z,32.02
2024-05-09T15:48:02.826Z,32.14
2024-05-09T15:50:07.887Z,32.45
2024-05-09T15:52:11.568Z,32.86
2024-05-09T15:54:13.296Z,32.67
2024-05-09T15:56:14.888Z,32.68
2024-05-09T15:58:16.717Z,32.93
2024-05-09T16:00:25.252Z,33.04
2024-05-09T16:02:36.105Z,33.27
2024-05-09T16:04:37.952Z,33.38
2024-05-09T16:06:39.798Z,33.39
2024-05-09T16:08:41.594Z,33.50
2024-05-09T16:10:45.999Z,33.73
2024-05-09T16:12:50.906Z,33.93
2024-05-09T16:14:52.552Z,33.83
2024-05-09T16:16:54.234Z,33.73
2024-05-09T16:18:56.002Z,33.55
2024-05-09T16:21:00.290Z,33.70
2024-05-09T16:23:02.113Z,33.42
2024-05-09T16:25:04.135Z,33.43
2024-05-09T16:27:06.045Z,33.77
2024-05-09T16:29:08.497Z,33.74
2024-05-09T16:31:10.232Z,33.84
2024-05-09T16:33:23.872Z,33.74
2024-05-09T16:35:28.757Z,33.61
2024-05-09T16:37:33.393Z,33.74
2024-05-09T16:39:35.021Z,33.68
2024-05-09T16:41:37.016Z,33.45
2024-05-09T16:43:38.587Z,33.39
2024-05-09T16:45:41.903Z,33.46
2024-05-09T16:47:43.736Z,33.27
2024-05-09T16:49:45.470Z,33.63
2024-05-09T16:51:47.087Z,33.70
2024-05-09T16:53:48.771Z,33.30
2024-05-09T16:55:50.400Z,33.35
2024-05-09T16:57:52.088Z,33.23
2024-05-09T16:59:53.673Z,33.39
2024-05-09T17:01:55.341Z,32.54
2024-05-09T17:03:59.848Z,32.63
2024-05-09T17:06:03.644Z,32.56
2024-05-09T17:08:05.726Z,32.21
2024-05-09T17:10:10.440Z,32.38
2024-05-09T17:12:17.119Z,32.50
2024-05-09T17:14:18.816Z,32.61
2024-05-09T17:16:20.975Z,32.97
2024-05-09T17:18:22.748Z,32.74
2024-05-09T17:20:31.834Z,32.97
2024-05-09T17:22:36.619Z,33.07
2024-05-09T17:24:38.192Z,33.02
2024-05-09T17:26:39.954Z,32.92
2024-05-09T17:28:41.575Z,33.14
2024-05-09T17:30:43.343Z,33.32
2024-05-09T17:32:45.112Z,32.94
2024-05-09T17:34:46.798Z,32.34
2024-05-09T17:36:48.443Z,32.56
2024-05-09T17:38:50.327Z,32.72
2024-05-09T17:40:53.131Z,32.76
2024-05-09T17:42:54.908Z,32.88
2024-05-09T17:44:56.506Z,32.69
2024-05-09T17:46:58.154Z,33.13
2024-05-09T17:49:01.321Z,32.76
2024-05-09T17:51:03.318Z,32.65
2024-05-09T17:53:05.847Z,32.75
2024-05-09T17:55:07.607Z,32.77
2024-05-09T17:57:09.464Z,32.99
2024-05-09T17:59:11.578Z,32.52
2024-05-09T18:01:13.972Z,32.83
2024-05-09T18:03:15.728Z,32.97
2024-05-09T18:05:17.495Z,32.85
2024-05-09T18:07:19.723Z,33.20
2024-05-09T18:09:23.004Z,33.08
2024-05-09T18:11:25.633Z,33.09
2024-05-09T18:13:27.481Z,32.88
2024-05-09T18:15:29.056Z,32.98
2024-05-09T18:17:30.935Z,33.29
2024-05-09T18:19:35.300Z,33.22
2024-05-09T18:21:39.140Z,33.06
2024-05-09T18:23:40.718Z,33.01
2024-05-09T18:25:42.403Z,33.31
2024-05-09T18:27:44.047Z,33.05
2024-05-09T18:29:45.625Z,33.36
2024-05-09T18:31:47.298Z,33.25
2024-05-09T18:33:49.171Z,33.46
2024-05-09T18:35:50.965Z,33.42
2024-05-09T18:37:53.083Z,33.62
2024-05-09T18:39:54.817Z,33.84
2024-05-09T18:41:56.403Z,33.77
2024-05-09T18:43:58.359Z,33.87
2024-05-09T18:46:00.015Z,34.00
2024-05-09T18:48:01.795Z,34.09
2024-05-09T18:50:04.706Z,34.60
2024-05-09T18:52:07.571Z,34.32
2024-05-09T18:54:09.249Z,34.31
2024-05-09T18:56:10.831Z,34.52
2024-05-09T18:58:12.612Z,34.48
2024-05-09T19:00:26.645Z,34.74
2024-05-09T19:02:35.374Z,35.22
2024-05-09T19:04:37.192Z,35.32
2024-05-09T19:06:39.031Z,35.43
2024-05-09T19:08:40.639Z,35.31
2024-05-09T19:10:42.300Z,35.47
2024-05-09T19:12:44.009Z,35.51
2024-05-09T19:14:45.619Z,35.74
2024-05-09T19:16:47.315Z,35.92
2024-05-09T19:18:51.363Z,35.86
2024-05-09T19:20:53.234Z,36.15
2024-05-09T19:22:54.919Z,36.24
2024-05-09T19:24:56.656Z,36.47
2024-05-09T19:26:58.294Z,36.47
2024-05-09T19:28:59.866Z,36.48
2024-05-09T19:31:01.700Z,36.51
2024-05-09T19:33:03.551Z,36.60
2024-05-09T19:35:05.744Z,36.59
2024-05-09T19:37:07.499Z,36.80
2024-05-09T19:39:09.356Z,36.67
2024-05-09T19:41:11.033Z,36.73
2024-05-09T19:43:12.682Z,36.73
2024-05-09T19:45:14.290Z,36.99
2024-05-09T19:47:15.988Z,36.92
2024-05-09T19:49:17.728Z,36.94
2024-05-09T19:51:19.422Z,36.83
2024-05-09T19:53:21.040Z,36.93
2024-05-09T19:55:22.887Z,36.77
2024-05-09T19:57:24.625Z,37.04
2024-05-09T19:59:26.224Z,36.99
2024-05-09T20:01:27.836Z,37.10
2024-05-09T20:03:36.510Z,37.27
2024-05-09T20:05:38.850Z,37.17
2024-05-09T20:07:41.936Z,37.12
2024-05-09T20:09:43.539Z,37.41
2024-05-09T20:11:45.155Z,37.59
2024-05-09T20:13:46.820Z,37.44
2024-05-09T20:15:49.359Z,37.67
2024-05-09T20:17:51.577Z,37.75
2024-05-09T20:19:54.477Z,37.71
2024-05-09T20:21:56.203Z,37.60
2024-05-09T20:23:57.923Z,37.80
2024-05-09T20:25:59.566Z,37.91
2024-05-09T20:28:01.401Z,37.84
2024-05-09T20:30:06.514Z,38.06
2024-05-09T20:32:09.591Z,37.94
2024-05-09T20:34:11.291Z,38.04
2024-05-09T20:36:12.869Z,38.02
2024-05-09T20:38:14.678Z,38.16
2024-05-09T20:40:25.278Z,38.24
2024-05-09T20:42:32.872Z,38.22
2024-05-09T20:44:34.623Z,38.36
2024-05-09T20:46:36.165Z,38.43
2024-05-09T20:48:37.861Z,38.52
2024-05-09T20:50:41.982Z,38.87
2024-05-09T20:52:44.392Z,39.13
2024-05-09T20:54:46.100Z,39.02
2024-05-09T20:56:47.718Z,38.76
2024-05-09T20:58:49.419Z,39.14
2024-05-09T21:00:51.239Z,39.21
2024-05-09T21:02:53.111Z,39.29
2024-05-09T21:04:54.800Z,39.12
2024-05-09T21:06:56.534Z,39.10
2024-05-09T21:08:58.713Z,39.15
2024-05-09T21:11:00.361Z,39.31
2024-05-09T21:13:03.333Z,39.27
2024-05-09T21:15:05.956Z,39.11
2024-05-09T21:17:07.677Z,39.34
2024-05-09T21:19:09.423Z,39.40
2024-05-09T21:21:11.284Z,39.36
2024-05-09T21:23:12.926Z,39.19
2024-05-09T21:25:14.622Z,39.32
2024-05-09T21:27:16.248Z,39.75
2024-05-09T21:29:17.859Z,39.88
2024-05-09T21:31:19.577Z,39.53
2024-05-09T21:33:21.669Z,39.99
2024-05-09T21:35:23.412Z,40.08
2024-05-09T21:37:25.041Z,39.83
2024-05-09T21:39:26.695Z,39.88
2024-05-09T21:41:28.303Z,39.85
2024-05-09T21:43:31.478Z,39.74
2024-05-09T21:45:34.073Z,40.03
2024-05-09T21:47:36.123Z,40.04
2024-05-09T21:49:37.870Z,39.59
2024-05-09T21:51:39.554Z,40.05
2024-05-09T21:53:41.215Z,40.36
2024-05-09T21:55:43.101Z,40.05
2024-05-09T21:57:44.886Z,39.97
2024-05-09T21:59:47.444Z,40.61
2024-05-09T22:01:49.146Z,40.03
2024-05-09T22:03:51.045Z,40.29
2024-05-09T22:05:52.708Z,40.12
2024-05-09T22:07:54.310Z,40.65
2024-05-09T22:09:55.915Z,40.17
2024-05-09T22:11:58.047Z,40.41
2024-05-09T22:13:59.724Z,40.59
2024-05-09T22:16:03.782Z,40.53
2024-05-09T22:18:06.237Z,40.79
2024-05-09T22:20:17.863Z,40.66
2024-05-09T22:22:23.611Z,40.91
2024-05-09T22:24:28.020Z,41.14
2024-05-09T22:26:29.619Z,40.90
2024-05-09T22:28:31.723Z,41.13
2024-05-09T22:30:37.479Z,41.09
2024-05-09T22:32:41.330Z,41.50
2024-05-09T22:34:43.016Z,40.92
2024-05-09T22:36:44.652Z,40.97
2024-05-09T22:38:46.286Z,41.32
2024-05-09T22:40:49.803Z,41.01
2024-05-09T22:42:51.848Z,41.36
2024-05-09T22:44:53.472Z,41.41
2024-05-09T22:46:55.136Z,41.53
2024-05-09T22:48:56.940Z,41.21
2024-05-09T22:50:58.565Z,41.23
2024-05-09T22:53:00.216Z,41.62
2024-05-09T22:55:01.820Z,41.94
2024-05-09T22:57:03.749Z,41.61
2024-05-09T22:59:06.638Z,42.04
2024-05-09T23:01:14.741Z,42.02
2024-05-09T23:03:16.643Z,41.74
2024-05-09T23:05:18.444Z,41.78
2024-05-09T23:07:20.106Z,42.35
2024-05-09T23:09:21.808Z,42.14
2024-05-09T23:11:23.567Z,42.00
2024-05-09T23:13:25.572Z,42.08
2024-05-09T23:15:27.426Z,42.01
2024-05-09T23:17:29.076Z,42.30
2024-05-09T23:19:30.765Z,42.39
2024-05-09T23:21:32.411Z,42.21
2024-05-09T23:23:34.207Z,42.25
2024-05-09T23:25:36.742Z,42.29
2024-05-09T23:27:39.128Z,42.64
2024-05-09T23:29:40.728Z,42.42
2024-05-09T23:31:42.382Z,42.38
2024-05-09T23:33:47.197Z,42.50
2024-05-09T23:35:48.946Z,42.49
2024-05-09T23:37:50.545Z,42.41
2024-05-09T23:39:52.528Z,42.61
2024-05-09T23:41:54.081Z,42.37
2024-05-09T23:43:55.657Z,42.71
2024-05-09T23:45:57.310Z,42.36
2024-05-09T23:47:58.969Z,42.82
2024-05-09T23:50:00.773Z,42.76
2024-05-09T23:52:02.420Z,42.74
2024-05-09T23:54:04.118Z,43.04
2024-05-09T23:56:06.204Z,42.89
2024-05-09T23:58:08.333Z,42.92
